sensor_id;sensor_type;location;lat;lon;timestamp;P1;durP1;ratioP1;P2;durP2;ratioP2
48487;SDS011;34289;48.572;13.378;2024-01-30T00:01:39;20.00;;;17.50;;
48487;SDS011;34289;48.572;13.378;2024-01-30T00:04:05;18.13;;;16.23;;
48487;SDS011;34289;48.572;13.378;2024-01-30T00:06:31;21.80;;;17.35;;
48487;SDS011;34289;48.572;13.378;2024-01-30T00:08:57;20.98;;;17.17;;
48487;SDS011;34289;48.572;13.378;2024-01-30T00:11:23;22.42;;;17.50;;
48487;SDS011;34289;48.572;13.378;2024-01-30T00:13:50;18.13;;;15.95;;
48487;SDS011;34289;48.572;13.378;2024-01-30T00:16:23;19.02;;;17.08;;
48487;SDS011;34289;48.572;13.378;2024-01-30T00:18:50;18.58;;;16.73;;
48487;SDS011;34289;48.572;13.378;2024-01-30T00:21:16;21.48;;;17.02;;
48487;SDS011;34289;48.572;13.378;2024-01-30T00:23:41;20.27;;;18.25;;
48487;SDS011;34289;48.572;13.378;2024-01-30T00:26:07;18.85;;;16.80;;
48487;SDS011;34289;48.572;13.378;2024-01-30T00:28:33;19.20;;;17.25;;
48487;SDS011;34289;48.572;13.378;2024-01-30T00:30:59;18.95;;;17.10;;
48487;SDS011;34289;48.572;13.378;2024-01-30T00:33:25;18.52;;;16.83;;
48487;SDS011;34289;48.572;13.378;2024-01-30T00:35:51;19.65;;;17.65;;
48487;SDS011;34289;48.572;13.378;2024-01-30T00:38:17;20.85;;;16.35;;
48487;SDS011;34289;48.572;13.378;2024-01-30T00:40:43;19.52;;;16.83;;
48487;SDS011;34289;48.572;13.378;2024-01-30T00:43:09;22.60;;;17.40;;
48487;SDS011;34289;48.572;13.378;2024-01-30T00:45:35;18.42;;;16.63;;
48487;SDS011;34289;48.572;13.378;2024-01-30T00:48:01;19.05;;;17.05;;
48487;SDS011;34289;48.572;13.378;2024-01-30T00:50:27;21.75;;;17.40;;
48487;SDS011;34289;48.572;13.378;2024-01-30T00:52:53;22.58;;;17.92;;
48487;SDS011;34289;48.572;13.378;2024-01-30T00:55:19;18.42;;;16.52;;
48487;SDS011;34289;48.572;13.378;2024-01-30T00:57:45;19.27;;;17.40;;
48487;SDS011;34289;48.572;13.378;2024-01-30T01:00:12;24.15;;;19.00;;
48487;SDS011;34289;48.572;13.378;2024-01-30T01:02:40;22.73;;;17.90;;
48487;SDS011;34289;48.572;13.378;2024-01-30T01:05:06;27.00;;;18.42;;
48487;SDS011;34289;48.572;13.378;2024-01-30T01:07:32;18.05;;;16.25;;
48487;SDS011;34289;48.572;13.378;2024-01-30T01:09:58;19.45;;;17.55;;
48487;SDS011;34289;48.572;13.378;2024-01-30T01:12:24;17.73;;;15.88;;
48487;SDS011;34289;48.572;13.378;2024-01-30T01:14:50;19.92;;;17.23;;
48487;SDS011;34289;48.572;13.378;2024-01-30T01:17:16;24.85;;;17.85;;
48487;SDS011;34289;48.572;13.378;2024-01-30T01:19:43;19.15;;;17.15;;
48487;SDS011;34289;48.572;13.378;2024-01-30T01:22:09;26.15;;;18.40;;
48487;SDS011;34289;48.572;13.378;2024-01-30T01:24:35;18.88;;;16.92;;
48487;SDS011;34289;48.572;13.378;2024-01-30T01:27:01;17.88;;;16.08;;
48487;SDS011;34289;48.572;13.378;2024-01-30T01:29:27;22.85;;;18.40;;
48487;SDS011;34289;48.572;13.378;2024-01-30T01:31:56;19.05;;;16.33;;
48487;SDS011;34289;48.572;13.378;2024-01-30T01:34:22;19.23;;;17.23;;
48487;SDS011;34289;48.572;13.378;2024-01-30T01:36:49;18.98;;;17.00;;
48487;SDS011;34289;48.572;13.378;2024-01-30T01:39:15;19.15;;;17.02;;
48487;SDS011;34289;48.572;13.378;2024-01-30T01:41:41;18.45;;;16.58;;
48487;SDS011;34289;48.572;13.378;2024-01-30T01:44:07;33.60;;;23.10;;
48487;SDS011;34289;48.572;13.378;2024-01-30T01:46:33;119.72;;;50.00;;
48487;SDS011;34289;48.572;13.378;2024-01-30T01:49:03;20.20;;;13.77;;
48487;SDS011;34289;48.572;13.378;2024-01-30T01:51:31;18.00;;;13.00;;
48487;SDS011;34289;48.572;13.378;2024-01-30T01:53:59;20.05;;;12.68;;
48487;SDS011;34289;48.572;13.378;2024-01-30T01:56:30;16.65;;;12.38;;
48487;SDS011;34289;48.572;13.378;2024-01-30T01:58:59;20.80;;;13.32;;
48487;SDS011;34289;48.572;13.378;2024-01-30T02:01:29;21.48;;;13.95;;
48487;SDS011;34289;48.572;13.378;2024-01-30T02:03:56;18.45;;;13.55;;
48487;SDS011;34289;48.572;13.378;2024-01-30T02:06:21;15.13;;;12.43;;
48487;SDS011;34289;48.572;13.378;2024-01-30T02:08:47;15.70;;;13.73;;
48487;SDS011;34289;48.572;13.378;2024-01-30T02:11:13;23.45;;;14.50;;
48487;SDS011;34289;48.572;13.378;2024-01-30T02:13:40;23.40;;;13.75;;
48487;SDS011;34289;48.572;13.378;2024-01-30T02:16:06;20.30;;;13.40;;
48487;SDS011;34289;48.572;13.378;2024-01-30T02:18:32;20.13;;;14.57;;
48487;SDS011;34289;48.572;13.378;2024-01-30T02:20:59;21.40;;;14.00;;
48487;SDS011;34289;48.572;13.378;2024-01-30T02:23:29;18.58;;;14.15;;
48487;SDS011;34289;48.572;13.378;2024-01-30T02:25:58;20.30;;;13.63;;
48487;SDS011;34289;48.572;13.378;2024-01-30T02:28:23;18.02;;;13.95;;
48487;SDS011;34289;48.572;13.378;2024-01-30T02:30:49;15.50;;;13.00;;
48487;SDS011;34289;48.572;13.378;2024-01-30T02:33:15;21.92;;;14.32;;
48487;SDS011;34289;48.572;13.378;2024-01-30T02:35:41;17.42;;;12.95;;
48487;SDS011;34289;48.572;13.378;2024-01-30T02:38:07;15.85;;;13.07;;
48487;SDS011;34289;48.572;13.378;2024-01-30T02:40:33;16.75;;;13.63;;
48487;SDS011;34289;48.572;13.378;2024-01-30T02:42:59;14.75;;;12.57;;
48487;SDS011;34289;48.572;13.378;2024-01-30T02:45:26;21.50;;;14.25;;
48487;SDS011;34289;48.572;13.378;2024-01-30T02:47:52;17.63;;;13.88;;
48487;SDS011;34289;48.572;13.378;2024-01-30T02:50:17;22.83;;;14.18;;
48487;SDS011;34289;48.572;13.378;2024-01-30T02:52:43;15.48;;;13.45;;
48487;SDS011;34289;48.572;13.378;2024-01-30T02:55:09;18.17;;;15.25;;
48487;SDS011;34289;48.572;13.378;2024-01-30T02:57:35;19.25;;;14.60;;
48487;SDS011;34289;48.572;13.378;2024-01-30T03:00:01;19.70;;;15.15;;
48487;SDS011;34289;48.572;13.378;2024-01-30T03:02:28;16.63;;;14.00;;
48487;SDS011;34289;48.572;13.378;2024-01-30T03:04:54;28.98;;;15.13;;
48487;SDS011;34289;48.572;13.378;2024-01-30T03:07:20;17.48;;;14.57;;
48487;SDS011;34289;48.572;13.378;2024-01-30T03:09:45;21.92;;;14.77;;
48487;SDS011;34289;48.572;13.378;2024-01-30T03:12:11;18.67;;;14.40;;
48487;SDS011;34289;48.572;13.378;2024-01-30T03:14:37;21.27;;;14.65;;
48487;SDS011;34289;48.572;13.378;2024-01-30T03:17:03;17.33;;;14.63;;
48487;SDS011;34289;48.572;13.378;2024-01-30T03:19:29;18.65;;;14.88;;
48487;SDS011;34289;48.572;13.378;2024-01-30T03:21:55;22.70;;;15.60;;
48487;SDS011;34289;48.572;13.378;2024-01-30T03:24:21;22.77;;;15.30;;
48487;SDS011;34289;48.572;13.378;2024-01-30T03:26:46;21.95;;;16.48;;
48487;SDS011;34289;48.572;13.378;2024-01-30T03:29:12;21.65;;;14.27;;
48487;SDS011;34289;48.572;13.378;2024-01-30T03:31:38;20.92;;;15.50;;
48487;SDS011;34289;48.572;13.378;2024-01-30T03:34:04;19.98;;;13.63;;
48487;SDS011;34289;48.572;13.378;2024-01-30T03:36:30;17.73;;;14.70;;
48487;SDS011;34289;48.572;13.378;2024-01-30T03:38:58;22.25;;;16.88;;
48487;SDS011;34289;48.572;13.378;2024-01-30T03:41:24;16.77;;;15.13;;
48487;SDS011;34289;48.572;13.378;2024-01-30T03:43:50;17.95;;;16.05;;
48487;SDS011;34289;48.572;13.378;2024-01-30T03:46:16;23.08;;;15.25;;
48487;SDS011;34289;48.572;13.378;2024-01-30T03:48:41;18.55;;;14.48;;
48487;SDS011;34289;48.572;13.378;2024-01-30T03:51:07;21.48;;;14.88;;
48487;SDS011;34289;48.572;13.378;2024-01-30T03:53:34;22.27;;;15.23;;
48487;SDS011;34289;48.572;13.378;2024-01-30T03:56:00;22.98;;;14.50;;
48487;SDS011;34289;48.572;13.378;2024-01-30T03:58:26;20.42;;;14.98;;
48487;SDS011;34289;48.572;13.378;2024-01-30T04:00:52;19.75;;;13.63;;
48487;SDS011;34289;48.572;13.378;2024-01-30T04:03:18;20.55;;;15.23;;
48487;SDS011;34289;48.572;13.378;2024-01-30T04:05:44;18.55;;;14.95;;
48487;SDS011;34289;48.572;13.378;2024-01-30T04:08:10;22.80;;;15.65;;
48487;SDS011;34289;48.572;13.378;2024-01-30T04:10:36;19.85;;;13.27;;
48487;SDS011;34289;48.572;13.378;2024-01-30T04:13:02;23.17;;;14.02;;
48487;SDS011;34289;48.572;13.378;2024-01-30T04:15:28;21.15;;;15.40;;
48487;SDS011;34289;48.572;13.378;2024-01-30T04:17:57;18.23;;;13.40;;
48487;SDS011;34289;48.572;13.378;2024-01-30T04:20:24;16.67;;;13.60;;
48487;SDS011;34289;48.572;13.378;2024-01-30T04:22:50;16.98;;;13.80;;
48487;SDS011;34289;48.572;13.378;2024-01-30T04:25:16;17.58;;;12.95;;
48487;SDS011;34289;48.572;13.378;2024-01-30T04:27:42;20.60;;;14.98;;
48487;SDS011;34289;48.572;13.378;2024-01-30T04:30:08;16.58;;;13.48;;
48487;SDS011;34289;48.572;13.378;2024-01-30T04:32:34;20.23;;;13.98;;
48487;SDS011;34289;48.572;13.378;2024-01-30T04:35:01;19.70;;;13.48;;
48487;SDS011;34289;48.572;13.378;2024-01-30T04:37:26;19.15;;;13.38;;
48487;SDS011;34289;48.572;13.378;2024-01-30T04:39:52;18.55;;;13.95;;
48487;SDS011;34289;48.572;13.378;2024-01-30T04:42:18;19.45;;;15.05;;
48487;SDS011;34289;48.572;13.378;2024-01-30T04:44:44;21.33;;;15.85;;
48487;SDS011;34289;48.572;13.378;2024-01-30T04:47:10;23.05;;;15.15;;
48487;SDS011;34289;48.572;13.378;2024-01-30T04:49:38;18.52;;;13.85;;
48487;SDS011;34289;48.572;13.378;2024-01-30T04:52:07;21.95;;;15.25;;
48487;SDS011;34289;48.572;13.378;2024-01-30T04:54:34;20.38;;;15.07;;
48487;SDS011;34289;48.572;13.378;2024-01-30T04:57:00;17.73;;;13.63;;
48487;SDS011;34289;48.572;13.378;2024-01-30T04:59:26;18.10;;;14.00;;
48487;SDS011;34289;48.572;13.378;2024-01-30T05:01:52;21.38;;;14.48;;
48487;SDS011;34289;48.572;13.378;2024-01-30T05:04:17;19.42;;;13.70;;
48487;SDS011;34289;48.572;13.378;2024-01-30T05:06:43;17.23;;;13.75;;
48487;SDS011;34289;48.572;13.378;2024-01-30T05:09:09;17.13;;;15.07;;
48487;SDS011;34289;48.572;13.378;2024-01-30T05:11:39;26.40;;;14.80;;
48487;SDS011;34289;48.572;13.378;2024-01-30T05:14:05;23.27;;;15.02;;
48487;SDS011;34289;48.572;13.378;2024-01-30T05:16:31;18.58;;;13.77;;
48487;SDS011;34289;48.572;13.378;2024-01-30T05:18:57;20.65;;;15.07;;
48487;SDS011;34289;48.572;13.378;2024-01-30T05:21:23;18.58;;;13.68;;
48487;SDS011;34289;48.572;13.378;2024-01-30T05:23:49;18.90;;;14.07;;
48487;SDS011;34289;48.572;13.378;2024-01-30T05:26:15;18.15;;;14.05;;
48487;SDS011;34289;48.572;13.378;2024-01-30T05:28:41;20.58;;;14.20;;
48487;SDS011;34289;48.572;13.378;2024-01-30T05:31:09;20.00;;;15.35;;
48487;SDS011;34289;48.572;13.378;2024-01-30T05:33:35;16.40;;;12.93;;
48487;SDS011;34289;48.572;13.378;2024-01-30T05:36:01;17.45;;;14.48;;
48487;SDS011;34289;48.572;13.378;2024-01-30T05:38:30;19.92;;;15.43;;
48487;SDS011;34289;48.572;13.378;2024-01-30T05:40:57;20.02;;;16.10;;
48487;SDS011;34289;48.572;13.378;2024-01-30T05:43:23;21.50;;;14.20;;
48487;SDS011;34289;48.572;13.378;2024-01-30T05:45:49;23.92;;;17.58;;
48487;SDS011;34289;48.572;13.378;2024-01-30T05:48:15;22.10;;;15.63;;
48487;SDS011;34289;48.572;13.378;2024-01-30T05:50:41;18.80;;;16.48;;
48487;SDS011;34289;48.572;13.378;2024-01-30T05:53:07;24.67;;;16.52;;
48487;SDS011;34289;48.572;13.378;2024-01-30T05:55:33;25.90;;;16.08;;
48487;SDS011;34289;48.572;13.378;2024-01-30T05:57:59;26.48;;;16.77;;
48487;SDS011;34289;48.572;13.378;2024-01-30T06:00:25;17.38;;;15.10;;
48487;SDS011;34289;48.572;13.378;2024-01-30T06:02:51;21.70;;;16.45;;
48487;SDS011;34289;48.572;13.378;2024-01-30T06:05:16;21.38;;;16.85;;
48487;SDS011;34289;48.572;13.378;2024-01-30T06:07:42;20.98;;;16.08;;
48487;SDS011;34289;48.572;13.378;2024-01-30T06:10:08;17.80;;;15.70;;
48487;SDS011;34289;48.572;13.378;2024-01-30T06:12:34;22.33;;;15.93;;
48487;SDS011;34289;48.572;13.378;2024-01-30T06:15:00;23.10;;;15.43;;
48487;SDS011;34289;48.572;13.378;2024-01-30T06:17:26;19.40;;;16.45;;
48487;SDS011;34289;48.572;13.378;2024-01-30T06:19:52;22.42;;;16.10;;
48487;SDS011;34289;48.572;13.378;2024-01-30T06:22:18;18.25;;;14.50;;
48487;SDS011;34289;48.572;13.378;2024-01-30T06:24:44;18.98;;;15.48;;
48487;SDS011;34289;48.572;13.378;2024-01-30T06:27:13;21.75;;;17.17;;
48487;SDS011;34289;48.572;13.378;2024-01-30T06:29:39;24.73;;;16.35;;
48487;SDS011;34289;48.572;13.378;2024-01-30T06:32:05;19.80;;;15.80;;
48487;SDS011;34289;48.572;13.378;2024-01-30T06:34:31;22.25;;;15.13;;
48487;SDS011;34289;48.572;13.378;2024-01-30T06:36:57;20.92;;;16.02;;
48487;SDS011;34289;48.572;13.378;2024-01-30T06:39:22;22.20;;;15.23;;
48487;SDS011;34289;48.572;13.378;2024-01-30T06:41:48;21.20;;;15.00;;
48487;SDS011;34289;48.572;13.378;2024-01-30T06:44:14;19.83;;;15.50;;
48487;SDS011;34289;48.572;13.378;2024-01-30T06:46:40;20.05;;;15.23;;
48487;SDS011;34289;48.572;13.378;2024-01-30T06:49:06;22.40;;;15.48;;
48487;SDS011;34289;48.572;13.378;2024-01-30T06:51:32;19.70;;;16.10;;
48487;SDS011;34289;48.572;13.378;2024-01-30T06:53:58;18.58;;;13.70;;
48487;SDS011;34289;48.572;13.378;2024-01-30T06:56:24;26.23;;;16.23;;
48487;SDS011;34289;48.572;13.378;2024-01-30T06:58:50;24.77;;;16.85;;
48487;SDS011;34289;48.572;13.378;2024-01-30T07:01:16;19.42;;;14.55;;
48487;SDS011;34289;48.572;13.378;2024-01-30T07:03:42;26.20;;;17.33;;
48487;SDS011;34289;48.572;13.378;2024-01-30T07:06:09;24.40;;;15.15;;
48487;SDS011;34289;48.572;13.378;2024-01-30T07:08:36;21.65;;;15.82;;
48487;SDS011;34289;48.572;13.378;2024-01-30T07:11:04;17.92;;;15.38;;
48487;SDS011;34289;48.572;13.378;2024-01-30T07:13:30;21.55;;;14.80;;
48487;SDS011;34289;48.572;13.378;2024-01-30T07:15:56;18.85;;;14.07;;
48487;SDS011;34289;48.572;13.378;2024-01-30T07:18:22;19.85;;;15.13;;
48487;SDS011;34289;48.572;13.378;2024-01-30T07:20:48;18.58;;;14.55;;
48487;SDS011;34289;48.572;13.378;2024-01-30T07:23:15;18.25;;;14.63;;
48487;SDS011;34289;48.572;13.378;2024-01-30T07:25:45;17.95;;;15.32;;
48487;SDS011;34289;48.572;13.378;2024-01-30T07:28:13;16.40;;;13.85;;
48487;SDS011;34289;48.572;13.378;2024-01-30T07:30:41;17.65;;;14.98;;
48487;SDS011;34289;48.572;13.378;2024-01-30T07:33:07;19.08;;;14.70;;
48487;SDS011;34289;48.572;13.378;2024-01-30T07:35:33;17.27;;;15.57;;
48487;SDS011;34289;48.572;13.378;2024-01-30T07:37:59;18.20;;;15.20;;
48487;SDS011;34289;48.572;13.378;2024-01-30T07:40:25;18.35;;;14.38;;
48487;SDS011;34289;48.572;13.378;2024-01-30T07:42:53;18.88;;;14.27;;
48487;SDS011;34289;48.572;13.378;2024-01-30T07:45:19;17.25;;;14.70;;
48487;SDS011;34289;48.572;13.378;2024-01-30T07:47:49;18.20;;;16.13;;
48487;SDS011;34289;48.572;13.378;2024-01-30T07:50:15;44.30;;;29.95;;
48487;SDS011;34289;48.572;13.378;2024-01-30T07:52:41;32.08;;;21.92;;
48487;SDS011;34289;48.572;13.378;2024-01-30T07:55:10;27.50;;;21.15;;
48487;SDS011;34289;48.572;13.378;2024-01-30T07:57:38;29.58;;;21.13;;
48487;SDS011;34289;48.572;13.378;2024-01-30T08:00:04;20.63;;;16.65;;
48487;SDS011;34289;48.572;13.378;2024-01-30T08:02:32;21.63;;;18.88;;
48487;SDS011;34289;48.572;13.378;2024-01-30T08:04:58;27.42;;;20.45;;
48487;SDS011;34289;48.572;13.378;2024-01-30T08:07:23;35.38;;;24.38;;
48487;SDS011;34289;48.572;13.378;2024-01-30T08:09:49;33.20;;;24.58;;
48487;SDS011;34289;48.572;13.378;2024-01-30T08:12:15;27.00;;;20.38;;
48487;SDS011;34289;48.572;13.378;2024-01-30T08:14:41;23.95;;;21.00;;
48487;SDS011;34289;48.572;13.378;2024-01-30T08:17:07;28.02;;;20.35;;
48487;SDS011;34289;48.572;13.378;2024-01-30T08:19:33;21.55;;;18.40;;
48487;SDS011;34289;48.572;13.378;2024-01-30T08:21:59;20.08;;;17.30;;
48487;SDS011;34289;48.572;13.378;2024-01-30T08:24:25;17.92;;;16.02;;
48487;SDS011;34289;48.572;13.378;2024-01-30T08:26:51;19.00;;;16.88;;
48487;SDS011;34289;48.572;13.378;2024-01-30T08:29:17;18.95;;;16.70;;
48487;SDS011;34289;48.572;13.378;2024-01-30T08:31:43;18.60;;;16.73;;
48487;SDS011;34289;48.572;13.378;2024-01-30T08:34:09;19.85;;;15.98;;
48487;SDS011;34289;48.572;13.378;2024-01-30T08:36:35;19.58;;;16.25;;
48487;SDS011;34289;48.572;13.378;2024-01-30T08:39:01;19.45;;;16.58;;
48487;SDS011;34289;48.572;13.378;2024-01-30T08:41:27;19.10;;;17.15;;
48487;SDS011;34289;48.572;13.378;2024-01-30T08:43:53;19.08;;;17.17;;
48487;SDS011;34289;48.572;13.378;2024-01-30T08:46:19;18.67;;;16.80;;
48487;SDS011;34289;48.572;13.378;2024-01-30T08:48:46;23.00;;;18.33;;
48487;SDS011;34289;48.572;13.378;2024-01-30T08:51:12;19.30;;;17.33;;
48487;SDS011;34289;48.572;13.378;2024-01-30T08:53:40;17.95;;;16.30;;
48487;SDS011;34289;48.572;13.378;2024-01-30T08:56:06;17.88;;;16.10;;
48487;SDS011;34289;48.572;13.378;2024-01-30T08:58:32;19.92;;;17.98;;
48487;SDS011;34289;48.572;13.378;2024-01-30T09:00:58;17.60;;;16.00;;
48487;SDS011;34289;48.572;13.378;2024-01-30T09:03:24;20.60;;;18.60;;
48487;SDS011;34289;48.572;13.378;2024-01-30T09:05:49;18.67;;;16.90;;
48487;SDS011;34289;48.572;13.378;2024-01-30T09:08:15;20.45;;;17.20;;
48487;SDS011;34289;48.572;13.378;2024-01-30T09:10:41;20.80;;;18.00;;
48487;SDS011;34289;48.572;13.378;2024-01-30T09:13:08;18.25;;;16.45;;
48487;SDS011;34289;48.572;13.378;2024-01-30T09:15:34;19.80;;;17.80;;
48487;SDS011;34289;48.572;13.378;2024-01-30T09:18:00;19.75;;;17.70;;
48487;SDS011;34289;48.572;13.378;2024-01-30T09:20:26;19.70;;;17.90;;
48487;SDS011;34289;48.572;13.378;2024-01-30T09:22:52;20.20;;;18.13;;
48487;SDS011;34289;48.572;13.378;2024-01-30T09:25:17;21.00;;;18.95;;
48487;SDS011;34289;48.572;13.378;2024-01-30T09:27:44;21.50;;;18.25;;
48487;SDS011;34289;48.572;13.378;2024-01-30T09:30:10;20.67;;;18.48;;
48487;SDS011;34289;48.572;13.378;2024-01-30T09:32:36;20.25;;;18.15;;
48487;SDS011;34289;48.572;13.378;2024-01-30T09:35:02;19.40;;;17.55;;
48487;SDS011;34289;48.572;13.378;2024-01-30T09:37:28;19.02;;;17.15;;
48487;SDS011;34289;48.572;13.378;2024-01-30T09:39:53;20.83;;;17.55;;
48487;SDS011;34289;48.572;13.378;2024-01-30T09:42:35;21.45;;;17.52;;
48487;SDS011;34289;48.572;13.378;2024-01-30T09:45:04;19.05;;;17.15;;
48487;SDS011;34289;48.572;13.378;2024-01-30T09:47:40;19.02;;;17.17;;
48487;SDS011;34289;48.572;13.378;2024-01-30T09:50:10;19.35;;;17.33;;
48487;SDS011;34289;48.572;13.378;2024-01-30T09:52:37;20.92;;;18.73;;
48487;SDS011;34289;48.572;13.378;2024-01-30T09:55:03;21.88;;;17.83;;
48487;SDS011;34289;48.572;13.378;2024-01-30T09:57:29;22.33;;;19.40;;
48487;SDS011;34289;48.572;13.378;2024-01-30T09:59:55;21.08;;;19.02;;
48487;SDS011;34289;48.572;13.378;2024-01-30T10:02:21;20.60;;;18.50;;
48487;SDS011;34289;48.572;13.378;2024-01-30T10:04:51;19.80;;;17.75;;
48487;SDS011;34289;48.572;13.378;2024-01-30T10:07:20;19.30;;;17.42;;
48487;SDS011;34289;48.572;13.378;2024-01-30T10:09:46;21.38;;;19.17;;
48487;SDS011;34289;48.572;13.378;2024-01-30T10:12:12;22.90;;;20.67;;
48487;SDS011;34289;48.572;13.378;2024-01-30T10:14:41;21.13;;;18.02;;
48487;SDS011;34289;48.572;13.378;2024-01-30T10:17:11;21.00;;;18.92;;
48487;SDS011;34289;48.572;13.378;2024-01-30T10:19:37;20.42;;;18.45;;
48487;SDS011;34289;48.572;13.378;2024-01-30T10:22:04;20.30;;;18.20;;
48487;SDS011;34289;48.572;13.378;2024-01-30T10:24:30;21.27;;;18.88;;
48487;SDS011;34289;48.572;13.378;2024-01-30T10:26:56;21.00;;;19.08;;
48487;SDS011;34289;48.572;13.378;2024-01-30T10:29:23;21.30;;;18.80;;
48487;SDS011;34289;48.572;13.378;2024-01-30T10:32:02;20.77;;;18.55;;
48487;SDS011;34289;48.572;13.378;2024-01-30T10:34:29;24.63;;;19.05;;
48487;SDS011;34289;48.572;13.378;2024-01-30T10:37:07;20.48;;;18.30;;
48487;SDS011;34289;48.572;13.378;2024-01-30T10:39:45;20.08;;;18.13;;
48487;SDS011;34289;48.572;13.378;2024-01-30T10:42:15;21.35;;;18.48;;
48487;SDS011;34289;48.572;13.378;2024-01-30T10:47:18;19.83;;;17.92;;
48487;SDS011;34289;48.572;13.378;2024-01-30T10:49:48;21.35;;;19.08;;
48487;SDS011;34289;48.572;13.378;2024-01-30T10:52:16;20.02;;;17.95;;
48487;SDS011;34289;48.572;13.378;2024-01-30T10:54:43;20.88;;;18.88;;
48487;SDS011;34289;48.572;13.378;2024-01-30T10:57:10;21.50;;;19.20;;
48487;SDS011;34289;48.572;13.378;2024-01-30T10:59:37;21.45;;;19.35;;
48487;SDS011;34289;48.572;13.378;2024-01-30T11:02:03;21.13;;;18.88;;
48487;SDS011;34289;48.572;13.378;2024-01-30T11:04:36;21.48;;;19.30;;
48487;SDS011;34289;48.572;13.378;2024-01-30T11:07:13;21.90;;;19.58;;
48487;SDS011;34289;48.572;13.378;2024-01-30T11:09:49;23.67;;;20.05;;
48487;SDS011;34289;48.572;13.378;2024-01-30T11:12:16;34.67;;;21.38;;
48487;SDS011;34289;48.572;13.378;2024-01-30T11:14:41;24.27;;;21.13;;
48487;SDS011;34289;48.572;13.378;2024-01-30T11:17:09;30.10;;;22.10;;
48487;SDS011;34289;48.572;13.378;2024-01-30T11:19:37;23.75;;;21.20;;
48487;SDS011;34289;48.572;13.378;2024-01-30T11:22:03;24.30;;;21.75;;
48487;SDS011;34289;48.572;13.378;2024-01-30T11:24:36;24.55;;;22.00;;
48487;SDS011;34289;48.572;13.378;2024-01-30T11:27:09;24.77;;;21.63;;
48487;SDS011;34289;48.572;13.378;2024-01-30T11:29:35;25.35;;;21.27;;
48487;SDS011;34289;48.572;13.378;2024-01-30T11:32:02;23.92;;;21.63;;
48487;SDS011;34289;48.572;13.378;2024-01-30T11:34:27;24.52;;;21.98;;
48487;SDS011;34289;48.572;13.378;2024-01-30T11:36:57;27.60;;;23.40;;
48487;SDS011;34289;48.572;13.378;2024-01-30T11:39:25;26.90;;;23.42;;
48487;SDS011;34289;48.572;13.378;2024-01-30T11:41:51;25.38;;;22.73;;
48487;SDS011;34289;48.572;13.378;2024-01-30T11:44:21;27.02;;;23.65;;
48487;SDS011;34289;48.572;13.378;2024-01-30T11:46:47;27.15;;;24.30;;
48487;SDS011;34289;48.572;13.378;2024-01-30T11:49:13;26.50;;;22.67;;
48487;SDS011;34289;48.572;13.378;2024-01-30T11:51:40;30.05;;;24.30;;
48487;SDS011;34289;48.572;13.378;2024-01-30T11:54:06;34.58;;;25.38;;
48487;SDS011;34289;48.572;13.378;2024-01-30T11:56:32;26.48;;;23.70;;
48487;SDS011;34289;48.572;13.378;2024-01-30T11:58:58;28.13;;;24.05;;
48487;SDS011;34289;48.572;13.378;2024-01-30T12:01:25;29.77;;;25.10;;
48487;SDS011;34289;48.572;13.378;2024-01-30T12:03:54;25.35;;;22.80;;
48487;SDS011;34289;48.572;13.378;2024-01-30T12:06:21;26.65;;;23.85;;
48487;SDS011;34289;48.572;13.378;2024-01-30T12:09:00;30.92;;;24.38;;
48487;SDS011;34289;48.572;13.378;2024-01-30T12:11:29;26.05;;;23.50;;
48487;SDS011;34289;48.572;13.378;2024-01-30T12:13:55;32.28;;;26.13;;
48487;SDS011;34289;48.572;13.378;2024-01-30T12:16:21;27.05;;;23.75;;
48487;SDS011;34289;48.572;13.378;2024-01-30T12:18:47;25.15;;;22.48;;
48487;SDS011;34289;48.572;13.378;2024-01-30T12:21:16;25.50;;;22.77;;
48487;SDS011;34289;48.572;13.378;2024-01-30T12:23:42;27.23;;;23.73;;
48487;SDS011;34289;48.572;13.378;2024-01-30T12:26:08;27.45;;;23.30;;
48487;SDS011;34289;48.572;13.378;2024-01-30T12:28:34;28.83;;;22.83;;
48487;SDS011;34289;48.572;13.378;2024-01-30T12:31:03;28.35;;;25.33;;
48487;SDS011;34289;48.572;13.378;2024-01-30T12:33:29;29.92;;;25.23;;
48487;SDS011;34289;48.572;13.378;2024-01-30T12:35:55;30.38;;;24.77;;
48487;SDS011;34289;48.572;13.378;2024-01-30T12:38:22;29.35;;;26.30;;
48487;SDS011;34289;48.572;13.378;2024-01-30T12:40:49;33.15;;;24.73;;
48487;SDS011;34289;48.572;13.378;2024-01-30T12:43:19;27.95;;;24.88;;
48487;SDS011;34289;48.572;13.378;2024-01-30T12:45:44;34.72;;;26.92;;
48487;SDS011;34289;48.572;13.378;2024-01-30T12:48:10;30.63;;;27.13;;
48487;SDS011;34289;48.572;13.378;2024-01-30T12:50:36;26.80;;;23.75;;
48487;SDS011;34289;48.572;13.378;2024-01-30T12:53:02;30.63;;;24.95;;
48487;SDS011;34289;48.572;13.378;2024-01-30T12:55:28;29.08;;;24.27;;
48487;SDS011;34289;48.572;13.378;2024-01-30T12:57:55;33.42;;;26.88;;
48487;SDS011;34289;48.572;13.378;2024-01-30T13:00:21;32.17;;;25.73;;
48487;SDS011;34289;48.572;13.378;2024-01-30T13:02:47;30.13;;;25.95;;
48487;SDS011;34289;48.572;13.378;2024-01-30T13:05:13;33.30;;;25.13;;
48487;SDS011;34289;48.572;13.378;2024-01-30T13:07:39;34.75;;;25.70;;
48487;SDS011;34289;48.572;13.378;2024-01-30T13:10:04;29.15;;;25.05;;
48487;SDS011;34289;48.572;13.378;2024-01-30T13:12:31;33.80;;;24.67;;
48487;SDS011;34289;48.572;13.378;2024-01-30T13:15:00;28.10;;;25.10;;
48487;SDS011;34289;48.572;13.378;2024-01-30T13:17:26;31.02;;;26.63;;
48487;SDS011;34289;48.572;13.378;2024-01-30T13:19:53;34.22;;;26.95;;
48487;SDS011;34289;48.572;13.378;2024-01-30T13:22:19;29.00;;;25.50;;
48487;SDS011;34289;48.572;13.378;2024-01-30T13:24:46;34.35;;;26.20;;
48487;SDS011;34289;48.572;13.378;2024-01-30T13:27:12;34.20;;;25.83;;
48487;SDS011;34289;48.572;13.378;2024-01-30T13:29:38;32.40;;;25.80;;
48487;SDS011;34289;48.572;13.378;2024-01-30T13:32:04;38.78;;;26.77;;
48487;SDS011;34289;48.572;13.378;2024-01-30T13:34:31;32.38;;;26.50;;
48487;SDS011;34289;48.572;13.378;2024-01-30T13:36:57;37.38;;;26.63;;
48487;SDS011;34289;48.572;13.378;2024-01-30T13:39:23;29.65;;;24.83;;
48487;SDS011;34289;48.572;13.378;2024-01-30T13:41:49;35.75;;;27.40;;
48487;SDS011;34289;48.572;13.378;2024-01-30T13:44:15;31.85;;;28.25;;
48487;SDS011;34289;48.572;13.378;2024-01-30T13:46:42;34.13;;;27.27;;
48487;SDS011;34289;48.572;13.378;2024-01-30T13:49:08;35.83;;;28.77;;
48487;SDS011;34289;48.572;13.378;2024-01-30T13:51:34;34.25;;;30.02;;
48487;SDS011;34289;48.572;13.378;2024-01-30T13:54:00;37.85;;;29.73;;
48487;SDS011;34289;48.572;13.378;2024-01-30T13:56:25;38.17;;;28.70;;
48487;SDS011;34289;48.572;13.378;2024-01-30T13:58:52;34.22;;;29.80;;
48487;SDS011;34289;48.572;13.378;2024-01-30T14:01:18;37.63;;;28.63;;
48487;SDS011;34289;48.572;13.378;2024-01-30T14:03:44;37.42;;;26.90;;
48487;SDS011;34289;48.572;13.378;2024-01-30T14:06:11;35.17;;;27.23;;
48487;SDS011;34289;48.572;13.378;2024-01-30T14:08:37;36.28;;;27.67;;